sensor_id;sensor_type;location;lat;lon;timestamp;P1;durP1;ratioP1;P2;durP2;ratioP2
11665;SDS011;5889;51.350;6.708;2022-09-29T00:00:23;20.13;;;13.93;;
11665;SDS011;5889;51.350;6.708;2022-09-29T00:02:51;19.20;;;12.63;;
11665;SDS011;5889;51.350;6.708;2022-09-29T00:05:18;20.50;;;13.53;;
11665;SDS011;5889;51.350;6.708;2022-09-29T00:07:47;19.00;;;12.87;;
11665;SDS011;5889;51.350;6.708;2022-09-29T00:10:14;19.13;;;13.07;;
11665;SDS011;5889;51.350;6.708;2022-09-29T00:12:41;19.77;;;13.30;;
11665;SDS011;5889;51.350;6.708;2022-09-29T00:15:08;19.43;;;12.93;;
11665;SDS011;5889;51.350;6.708;2022-09-29T00:17:36;19.67;;;12.60;;
11665;SDS011;5889;51.350;6.708;2022-09-29T00:20:03;20.07;;;12.33;;
11665;SDS011;5889;51.350;6.708;2022-09-29T00:22:30;18.43;;;12.80;;
11665;SDS011;5889;51.350;6.708;2022-09-29T00:24:59;17.80;;;12.13;;
11665;SDS011;5889;51.350;6.708;2022-09-29T00:27:26;17.10;;;12.20;;
11665;SDS011;5889;51.350;6.708;2022-09-29T00:29:53;16.13;;;11.93;;
11665;SDS011;5889;51.350;6.708;2022-09-29T00:32:19;19.40;;;12.50;;
11665;SDS011;5889;51.350;6.708;2022-09-29T00:34:46;18.57;;;12.63;;
11665;SDS011;5889;51.350;6.708;2022-09-29T00:37:15;17.23;;;12.73;;
11665;SDS011;5889;51.350;6.708;2022-09-29T00:39:42;19.33;;;12.10;;
11665;SDS011;5889;51.350;6.708;2022-09-29T00:42:10;21.60;;;11.57;;
11665;SDS011;5889;51.350;6.708;2022-09-29T00:44:56;18.40;;;12.13;;
11665;SDS011;5889;51.350;6.708;2022-09-29T00:47:27;19.77;;;13.07;;
11665;SDS011;5889;51.350;6.708;2022-09-29T00:49:58;16.43;;;12.20;;
11665;SDS011;5889;51.350;6.708;2022-09-29T00:52:31;20.63;;;12.10;;
11665;SDS011;5889;51.350;6.708;2022-09-29T00:55:02;17.63;;;12.57;;
11665;SDS011;5889;51.350;6.708;2022-09-29T00:57:36;20.77;;;12.23;;
11665;SDS011;5889;51.350;6.708;2022-09-29T01:00:07;17.97;;;11.47;;
11665;SDS011;5889;51.350;6.708;2022-09-29T01:02:37;18.03;;;12.10;;
11665;SDS011;5889;51.350;6.708;2022-09-29T01:05:07;16.30;;;12.07;;
11665;SDS011;5889;51.350;6.708;2022-09-29T01:07:38;17.50;;;12.07;;
11665;SDS011;5889;51.350;6.708;2022-09-29T01:10:08;19.40;;;12.60;;
11665;SDS011;5889;51.350;6.708;2022-09-29T01:12:37;19.20;;;12.40;;
11665;SDS011;5889;51.350;6.708;2022-09-29T01:15:04;18.87;;;11.87;;
11665;SDS011;5889;51.350;6.708;2022-09-29T01:17:32;20.53;;;11.87;;
11665;SDS011;5889;51.350;6.708;2022-09-29T01:20:02;18.77;;;11.33;;
11665;SDS011;5889;51.350;6.708;2022-09-29T01:28:53;17.40;;;11.40;;
11665;SDS011;5889;51.350;6.708;2022-09-29T01:31:42;16.20;;;10.93;;
11665;SDS011;5889;51.350;6.708;2022-09-29T01:34:17;17.37;;;11.57;;
11665;SDS011;5889;51.350;6.708;2022-09-29T01:36:51;15.30;;;11.63;;
11665;SDS011;5889;51.350;6.708;2022-09-29T01:39:29;20.43;;;11.57;;
11665;SDS011;5889;51.350;6.708;2022-09-29T01:42:02;16.97;;;11.00;;
11665;SDS011;5889;51.350;6.708;2022-09-29T01:44:35;15.57;;;11.37;;
11665;SDS011;5889;51.350;6.708;2022-09-29T01:47:07;16.90;;;11.83;;
11665;SDS011;5889;51.350;6.708;2022-09-29T01:49:39;16.20;;;11.73;;
11665;SDS011;5889;51.350;6.708;2022-09-29T01:52:10;16.60;;;10.93;;
11665;SDS011;5889;51.350;6.708;2022-09-29T01:54:42;16.70;;;11.70;;
11665;SDS011;5889;51.350;6.708;2022-09-29T01:57:13;17.53;;;11.40;;
11665;SDS011;5889;51.350;6.708;2022-09-29T01:59:48;16.30;;;11.03;;
11665;SDS011;5889;51.350;6.708;2022-09-29T02:02:21;16.23;;;10.63;;
11665;SDS011;5889;51.350;6.708;2022-09-29T02:04:55;15.40;;;10.60;;
11665;SDS011;5889;51.350;6.708;2022-09-29T02:07:27;16.27;;;11.27;;
11665;SDS011;5889;51.350;6.708;2022-09-29T02:09:59;16.60;;;11.03;;
11665;SDS011;5889;51.350;6.708;2022-09-29T02:12:31;17.43;;;10.10;;
11665;SDS011;5889;51.350;6.708;2022-09-29T02:15:00;13.73;;;9.90;;
11665;SDS011;5889;51.350;6.708;2022-09-29T02:17:30;17.20;;;10.57;;
11665;SDS011;5889;51.350;6.708;2022-09-29T02:20:00;16.73;;;10.10;;
11665;SDS011;5889;51.350;6.708;2022-09-29T02:22:28;14.20;;;10.03;;
11665;SDS011;5889;51.350;6.708;2022-09-29T02:24:56;16.70;;;11.03;;
11665;SDS011;5889;51.350;6.708;2022-09-29T02:27:25;14.63;;;9.70;;
11665;SDS011;5889;51.350;6.708;2022-09-29T02:29:53;12.60;;;9.33;;
11665;SDS011;5889;51.350;6.708;2022-09-29T02:32:22;14.50;;;10.23;;
11665;SDS011;5889;51.350;6.708;2022-09-29T02:34:51;17.13;;;10.27;;
11665;SDS011;5889;51.350;6.708;2022-09-29T02:37:26;15.10;;;9.60;;
11665;SDS011;5889;51.350;6.708;2022-09-29T02:40:05;13.87;;;10.37;;
11665;SDS011;5889;51.350;6.708;2022-09-29T02:42:44;14.60;;;9.47;;
11665;SDS011;5889;51.350;6.708;2022-09-29T02:45:23;14.50;;;9.40;;
11665;SDS011;5889;51.350;6.708;2022-09-29T02:48:04;15.13;;;10.37;;
11665;SDS011;5889;51.350;6.708;2022-09-29T02:50:42;15.60;;;10.57;;
11665;SDS011;5889;51.350;6.708;2022-09-29T02:53:27;13.97;;;9.90;;
11665;SDS011;5889;51.350;6.708;2022-09-29T02:56:03;13.33;;;9.33;;
11665;SDS011;5889;51.350;6.708;2022-09-29T02:58:40;12.50;;;9.63;;
11665;SDS011;5889;51.350;6.708;2022-09-29T03:01:12;15.17;;;9.73;;
11665;SDS011;5889;51.350;6.708;2022-09-29T03:03:40;14.27;;;9.57;;
11665;SDS011;5889;51.350;6.708;2022-09-29T03:06:09;12.03;;;9.33;;
11665;SDS011;5889;51.350;6.708;2022-09-29T03:08:37;14.03;;;9.87;;
11665;SDS011;5889;51.350;6.708;2022-09-29T03:11:04;13.17;;;9.50;;
11665;SDS011;5889;51.350;6.708;2022-09-29T03:13:31;14.27;;;10.07;;
11665;SDS011;5889;51.350;6.708;2022-09-29T03:15:58;14.57;;;10.23;;
11665;SDS011;5889;51.350;6.708;2022-09-29T03:18:25;15.60;;;9.90;;
11665;SDS011;5889;51.350;6.708;2022-09-29T03:20:52;15.63;;;9.67;;
11665;SDS011;5889;51.350;6.708;2022-09-29T03:23:20;17.87;;;10.63;;
11665;SDS011;5889;51.350;6.708;2022-09-29T03:25:47;12.77;;;9.93;;
11665;SDS011;5889;51.350;6.708;2022-09-29T03:28:14;14.47;;;10.47;;
11665;SDS011;5889;51.350;6.708;2022-09-29T03:30:41;16.13;;;8.80;;
11665;SDS011;5889;51.350;6.708;2022-09-29T03:33:09;10.10;;;7.00;;
11665;SDS011;5889;51.350;6.708;2022-09-29T03:35:36;10.43;;;7.87;;
11665;SDS011;5889;51.350;6.708;2022-09-29T03:38:03;8.67;;;7.20;;
11665;SDS011;5889;51.350;6.708;2022-09-29T03:40:31;14.50;;;9.93;;
11665;SDS011;5889;51.350;6.708;2022-09-29T03:42:58;12.60;;;9.13;;
11665;SDS011;5889;51.350;6.708;2022-09-29T03:45:25;14.40;;;9.73;;
11665;SDS011;5889;51.350;6.708;2022-09-29T03:47:52;13.90;;;8.73;;
11665;SDS011;5889;51.350;6.708;2022-09-29T03:50:19;17.37;;;9.87;;
11665;SDS011;5889;51.350;6.708;2022-09-29T03:52:46;14.77;;;9.73;;
11665;SDS011;5889;51.350;6.708;2022-09-29T03:55:13;15.47;;;9.83;;
11665;SDS011;5889;51.350;6.708;2022-09-29T03:57:41;14.03;;;9.23;;
11665;SDS011;5889;51.350;6.708;2022-09-29T04:00:09;14.40;;;9.30;;
11665;SDS011;5889;51.350;6.708;2022-09-29T04:02:37;14.57;;;9.43;;
11665;SDS011;5889;51.350;6.708;2022-09-29T04:05:04;13.50;;;9.97;;
11665;SDS011;5889;51.350;6.708;2022-09-29T04:07:31;16.53;;;9.70;;
11665;SDS011;5889;51.350;6.708;2022-09-29T04:09:58;14.77;;;9.33;;
11665;SDS011;5889;51.350;6.708;2022-09-29T04:12:25;13.93;;;8.90;;
11665;SDS011;5889;51.350;6.708;2022-09-29T04:14:53;15.80;;;10.67;;
11665;SDS011;5889;51.350;6.708;2022-09-29T04:17:20;15.87;;;9.93;;
11665;SDS011;5889;51.350;6.708;2022-09-29T04:19:47;13.40;;;9.50;;
11665;SDS011;5889;51.350;6.708;2022-09-29T04:22:14;15.60;;;9.60;;
11665;SDS011;5889;51.350;6.708;2022-09-29T04:24:42;12.23;;;9.47;;
11665;SDS011;5889;51.350;6.708;2022-09-29T04:27:09;12.90;;;9.37;;
11665;SDS011;5889;51.350;6.708;2022-09-29T04:29:36;14.17;;;9.43;;
11665;SDS011;5889;51.350;6.708;2022-09-29T04:32:04;14.20;;;9.33;;
11665;SDS011;5889;51.350;6.708;2022-09-29T04:34:32;12.67;;;9.13;;
11665;SDS011;5889;51.350;6.708;2022-09-29T04:36:59;14.70;;;9.00;;
11665;SDS011;5889;51.350;6.708;2022-09-29T04:39:26;12.00;;;9.33;;
11665;SDS011;5889;51.350;6.708;2022-09-29T04:41:53;13.40;;;9.37;;
11665;SDS011;5889;51.350;6.708;2022-09-29T04:44:20;14.17;;;9.50;;
11665;SDS011;5889;51.350;6.708;2022-09-29T04:46:49;13.37;;;9.00;;
11665;SDS011;5889;51.350;6.708;2022-09-29T04:49:18;11.63;;;9.00;;
11665;SDS011;5889;51.350;6.708;2022-09-29T04:51:45;16.07;;;9.33;;
11665;SDS011;5889;51.350;6.708;2022-09-29T04:54:12;13.80;;;9.70;;
11665;SDS011;5889;51.350;6.708;2022-09-29T04:56:39;14.90;;;10.17;;
11665;SDS011;5889;51.350;6.708;2022-09-29T04:59:06;16.33;;;10.83;;
11665;SDS011;5889;51.350;6.708;2022-09-29T05:01:34;15.63;;;9.87;;
11665;SDS011;5889;51.350;6.708;2022-09-29T05:04:01;15.30;;;9.77;;
11665;SDS011;5889;51.350;6.708;2022-09-29T05:06:29;14.97;;;9.97;;
11665;SDS011;5889;51.350;6.708;2022-09-29T05:08:56;15.17;;;9.93;;
11665;SDS011;5889;51.350;6.708;2022-09-29T05:11:23;14.47;;;9.87;;
11665;SDS011;5889;51.350;6.708;2022-09-29T05:13:50;14.40;;;9.90;;
11665;SDS011;5889;51.350;6.708;2022-09-29T05:16:17;17.07;;;10.50;;
11665;SDS011;5889;51.350;6.708;2022-09-29T05:18:44;16.70;;;10.03;;
11665;SDS011;5889;51.350;6.708;2022-09-29T05:21:11;14.47;;;10.53;;
11665;SDS011;5889;51.350;6.708;2022-09-29T05:23:39;14.87;;;10.30;;
11665;SDS011;5889;51.350;6.708;2022-09-29T05:26:07;13.33;;;10.67;;
11665;SDS011;5889;51.350;6.708;2022-09-29T05:28:35;16.63;;;10.93;;
11665;SDS011;5889;51.350;6.708;2022-09-29T05:31:03;14.80;;;9.77;;
11665;SDS011;5889;51.350;6.708;2022-09-29T05:33:32;16.00;;;10.27;;
11665;SDS011;5889;51.350;6.708;2022-09-29T05:36:00;16.67;;;10.80;;
11665;SDS011;5889;51.350;6.708;2022-09-29T05:38:31;17.27;;;10.80;;
11665;SDS011;5889;51.350;6.708;2022-09-29T05:41:02;17.80;;;10.17;;
11665;SDS011;5889;51.350;6.708;2022-09-29T05:43:29;13.07;;;9.37;;
11665;SDS011;5889;51.350;6.708;2022-09-29T05:45:58;15.83;;;10.67;;
11665;SDS011;5889;51.350;6.708;2022-09-29T05:48:25;15.33;;;10.33;;
11665;SDS011;5889;51.350;6.708;2022-09-29T05:50:54;15.43;;;10.23;;
11665;SDS011;5889;51.350;6.708;2022-09-29T05:53:21;17.63;;;10.77;;
11665;SDS011;5889;51.350;6.708;2022-09-29T05:55:49;15.83;;;10.73;;
11665;SDS011;5889;51.350;6.708;2022-09-29T05:58:17;16.97;;;11.20;;
11665;SDS011;5889;51.350;6.708;2022-09-29T06:00:45;14.60;;;10.80;;
11665;SDS011;5889;51.350;6.708;2022-09-29T06:03:12;15.93;;;11.07;;
11665;SDS011;5889;51.350;6.708;2022-09-29T06:05:39;15.37;;;10.47;;
11665;SDS011;5889;51.350;6.708;2022-09-29T06:08:06;15.90;;;10.60;;
11665;SDS011;5889;51.350;6.708;2022-09-29T06:10:33;19.43;;;11.93;;
11665;SDS011;5889;51.350;6.708;2022-09-29T06:13:00;19.17;;;11.57;;
11665;SDS011;5889;51.350;6.708;2022-09-29T06:15:29;19.07;;;12.10;;
11665;SDS011;5889;51.350;6.708;2022-09-29T06:17:56;19.47;;;11.83;;
11665;SDS011;5889;51.350;6.708;2022-09-29T06:20:25;19.47;;;11.23;;
11665;SDS011;5889;51.350;6.708;2022-09-29T06:22:52;16.90;;;11.70;;
11665;SDS011;5889;51.350;6.708;2022-09-29T06:25:19;18.23;;;11.33;;
11665;SDS011;5889;51.350;6.708;2022-09-29T06:27:46;20.63;;;11.83;;
11665;SDS011;5889;51.350;6.708;2022-09-29T06:30:16;18.33;;;12.27;;
11665;SDS011;5889;51.350;6.708;2022-09-29T06:32:45;21.77;;;12.17;;
11665;SDS011;5889;51.350;6.708;2022-09-29T06:35:12;16.70;;;12.23;;
11665;SDS011;5889;51.350;6.708;2022-09-29T06:37:56;18.87;;;12.03;;
11665;SDS011;5889;51.350;6.708;2022-09-29T06:40:23;19.73;;;11.93;;
11665;SDS011;5889;51.350;6.708;2022-09-29T06:42:52;17.37;;;10.70;;
11665;SDS011;5889;51.350;6.708;2022-09-29T06:45:18;15.93;;;11.50;;
11665;SDS011;5889;51.350;6.708;2022-09-29T06:47:47;19.67;;;12.53;;
11665;SDS011;5889;51.350;6.708;2022-09-29T06:50:14;18.50;;;12.40;;
11665;SDS011;5889;51.350;6.708;2022-09-29T06:52:41;19.57;;;12.50;;
11665;SDS011;5889;51.350;6.708;2022-09-29T06:55:08;18.27;;;12.00;;
11665;SDS011;5889;51.350;6.708;2022-09-29T06:57:35;22.13;;;12.60;;
11665;SDS011;5889;51.350;6.708;2022-09-29T07:00:02;20.23;;;12.17;;
11665;SDS011;5889;51.350;6.708;2022-09-29T07:02:30;20.23;;;11.70;;
11665;SDS011;5889;51.350;6.708;2022-09-29T07:04:59;19.70;;;12.57;;
11665;SDS011;5889;51.350;6.708;2022-09-29T07:07:26;16.70;;;11.70;;
11665;SDS011;5889;51.350;6.708;2022-09-29T07:09:52;21.40;;;13.70;;
11665;SDS011;5889;51.350;6.708;2022-09-29T07:12:19;19.70;;;13.63;;
11665;SDS011;5889;51.350;6.708;2022-09-29T07:14:46;19.63;;;13.80;;
11665;SDS011;5889;51.350;6.708;2022-09-29T07:17:13;17.53;;;12.47;;
11665;SDS011;5889;51.350;6.708;2022-09-29T07:19:41;20.57;;;13.07;;
11665;SDS011;5889;51.350;6.708;2022-09-29T07:22:09;22.97;;;13.70;;
11665;SDS011;5889;51.350;6.708;2022-09-29T07:24:36;21.13;;;14.10;;
11665;SDS011;5889;51.350;6.708;2022-09-29T07:27:03;21.30;;;14.50;;
11665;SDS011;5889;51.350;6.708;2022-09-29T07:29:31;21.70;;;13.63;;
11665;SDS011;5889;51.350;6.708;2022-09-29T07:31:59;18.20;;;13.43;;
11665;SDS011;5889;51.350;6.708;2022-09-29T07:34:26;22.13;;;13.17;;
11665;SDS011;5889;51.350;6.708;2022-09-29T07:36:53;22.67;;;14.30;;
11665;SDS011;5889;51.350;6.708;2022-09-29T07:39:21;18.40;;;14.00;;
11665;SDS011;5889;51.350;6.708;2022-09-29T07:41:49;24.70;;;13.83;;
11665;SDS011;5889;51.350;6.708;2022-09-29T07:44:16;23.73;;;14.67;;
11665;SDS011;5889;51.350;6.708;2022-09-29T07:46:43;21.73;;;14.90;;
11665;SDS011;5889;51.350;6.708;2022-09-29T07:49:10;17.00;;;12.53;;
11665;SDS011;5889;51.350;6.708;2022-09-29T07:51:37;21.43;;;14.97;;
11665;SDS011;5889;51.350;6.708;2022-09-29T07:54:03;20.73;;;13.70;;
11665;SDS011;5889;51.350;6.708;2022-09-29T07:56:32;23.83;;;14.23;;
11665;SDS011;5889;51.350;6.708;2022-09-29T07:58:59;22.53;;;15.50;;
11665;SDS011;5889;51.350;6.708;2022-09-29T08:01:28;20.03;;;14.13;;
11665;SDS011;5889;51.350;6.708;2022-09-29T08:03:56;25.73;;;15.27;;
11665;SDS011;5889;51.350;6.708;2022-09-29T08:06:23;23.77;;;16.00;;
11665;SDS011;5889;51.350;6.708;2022-09-29T08:08:52;25.53;;;15.63;;
11665;SDS011;5889;51.350;6.708;2022-09-29T08:11:19;22.93;;;15.27;;
11665;SDS011;5889;51.350;6.708;2022-09-29T08:13:49;23.53;;;15.80;;
11665;SDS011;5889;51.350;6.708;2022-09-29T08:16:16;24.37;;;16.17;;
11665;SDS011;5889;51.350;6.708;2022-09-29T08:18:43;23.63;;;15.50;;
11665;SDS011;5889;51.350;6.708;2022-09-29T08:21:11;22.50;;;15.70;;
11665;SDS011;5889;51.350;6.708;2022-09-29T08:23:39;23.57;;;15.33;;
11665;SDS011;5889;51.350;6.708;2022-09-29T08:26:07;24.17;;;15.93;;
11665;SDS011;5889;51.350;6.708;2022-09-29T08:28:37;23.73;;;14.83;;
11665;SDS011;5889;51.350;6.708;2022-09-29T08:31:06;21.87;;;14.87;;
11665;SDS011;5889;51.350;6.708;2022-09-29T08:33:34;22.33;;;14.07;;
11665;SDS011;5889;51.350;6.708;2022-09-29T08:36:02;23.50;;;14.90;;
11665;SDS011;5889;51.350;6.708;2022-09-29T08:38:38;18.20;;;14.60;;
11665;SDS011;5889;51.350;6.708;2022-09-29T08:41:09;19.37;;;14.17;;
11665;SDS011;5889;51.350;6.708;2022-09-29T08:43:46;19.23;;;14.37;;
11665;SDS011;5889;51.350;6.708;2022-09-29T08:46:18;17.67;;;13.37;;
11665;SDS011;5889;51.350;6.708;2022-09-29T08:48:50;22.47;;;14.43;;
11665;SDS011;5889;51.350;6.708;2022-09-29T08:51:20;18.97;;;13.63;;
11665;SDS011;5889;51.350;6.708;2022-09-29T08:53:52;20.30;;;13.87;;
11665;SDS011;5889;51.350;6.708;2022-09-29T08:56:22;18.07;;;13.03;;
11665;SDS011;5889;51.350;6.708;2022-09-29T08:58:51;17.90;;;12.57;;
11665;SDS011;5889;51.350;6.708;2022-09-29T09:01:22;16.77;;;11.73;;
11665;SDS011;5889;51.350;6.708;2022-09-29T09:04:08;18.53;;;12.50;;
11665;SDS011;5889;51.350;6.708;2022-09-29T09:06:47;15.50;;;11.87;;
11665;SDS011;5889;51.350;6.708;2022-09-29T09:09:25;18.17;;;11.57;;
11665;SDS011;5889;51.350;6.708;2022-09-29T09:12:07;17.07;;;11.70;;
11665;SDS011;5889;51.350;6.708;2022-09-29T09:15:00;14.70;;;10.30;;
11665;SDS011;5889;51.350;6.708;2022-09-29T09:17:50;17.47;;;10.03;;
11665;SDS011;5889;51.350;6.708;2022-09-29T09:20:33;16.33;;;11.10;;
11665;SDS011;5889;51.350;6.708;2022-09-29T09:23:04;13.60;;;10.83;;
11665;SDS011;5889;51.350;6.708;2022-09-29T09:25:39;14.13;;;10.47;;
11665;SDS011;5889;51.350;6.708;2022-09-29T09:28:14;13.93;;;9.63;;
11665;SDS011;5889;51.350;6.708;2022-09-29T09:30:44;16.60;;;10.73;;
11665;SDS011;5889;51.350;6.708;2022-09-29T09:33:18;12.60;;;9.63;;
11665;SDS011;5889;51.350;6.708;2022-09-29T09:35:52;12.07;;;9.10;;
11665;SDS011;5889;51.350;6.708;2022-09-29T09:38:24;12.57;;;9.57;;
11665;SDS011;5889;51.350;6.708;2022-09-29T09:40:54;12.53;;;8.73;;
11665;SDS011;5889;51.350;6.708;2022-09-29T09:43:25;14.13;;;8.97;;
11665;SDS011;5889;51.350;6.708;2022-09-29T09:45:59;13.50;;;9.60;;
11665;SDS011;5889;51.350;6.708;2022-09-29T09:48:31;12.73;;;9.37;;
11665;SDS011;5889;51.350;6.708;2022-09-29T09:53:55;13.33;;;8.47;;
11665;SDS011;5889;51.350;6.708;2022-09-29T09:56:37;12.17;;;8.90;;
11665;SDS011;5889;51.350;6.708;2022-09-29T09:59:22;11.67;;;8.97;;
11665;SDS011;5889;51.350;6.708;2022-09-29T10:01:57;12.13;;;9.00;;
11665;SDS011;5889;51.350;6.708;2022-09-29T10:04:26;9.33;;;7.50;;
11665;SDS011;5889;51.350;6.708;2022-09-29T10:06:53;11.90;;;8.27;;
11665;SDS011;5889;51.350;6.708;2022-09-29T10:09:21;10.07;;;7.67;;
11665;SDS011;5889;51.350;6.708;2022-09-29T10:11:48;12.17;;;7.23;;
11665;SDS011;5889;51.350;6.708;2022-09-29T10:14:18;11.23;;;7.37;;
11665;SDS011;5889;51.350;6.708;2022-09-29T10:16:50;16.83;;;8.83;;
11665;SDS011;5889;51.350;6.708;2022-09-29T10:19:22;14.33;;;9.20;;
11665;SDS011;5889;51.350;6.708;2022-09-29T10:22:12;13.50;;;8.90;;
11665;SDS011;5889;51.350;6.708;2022-09-29T10:24:40;11.30;;;8.70;;
11665;SDS011;5889;51.350;6.708;2022-09-29T10:27:07;12.10;;;8.23;;
11665;SDS011;5889;51.350;6.708;2022-09-29T10:29:36;14.50;;;8.87;;
11665;SDS011;5889;51.350;6.708;2022-09-29T10:32:05;13.50;;;8.13;;
11665;SDS011;5889;51.350;6.708;2022-09-29T10:34:45;11.93;;;8.03;;
11665;SDS011;5889;51.350;6.708;2022-09-29T10:37:20;12.50;;;8.30;;
11665;SDS011;5889;51.350;6.708;2022-09-29T10:39:49;11.03;;;7.83;;
11665;SDS011;5889;51.350;6.708;2022-09-29T10:42:31;16.50;;;8.20;;
11665;SDS011;5889;51.350;6.708;2022-09-29T10:45:00;10.53;;;6.80;;
11665;SDS011;5889;51.350;6.708;2022-09-29T10:47:35;15.07;;;7.90;;
11665;SDS011;5889;51.350;6.708;2022-09-29T10:50:06;14.60;;;8.60;;
11665;SDS011;5889;51.350;6.708;2022-09-29T10:52:46;14.40;;;8.17;;
11665;SDS011;5889;51.350;6.708;2022-09-29T10:55:16;13.80;;;8.50;;
11665;SDS011;5889;51.350;6.708;2022-09-29T10:57:45;12.80;;;7.57;;
11665;SDS011;5889;51.350;6.708;2022-09-29T11:00:26;14.77;;;8.10;;
11665;SDS011;5889;51.350;6.708;2022-09-29T11:02:57;9.50;;;6.73;;
11665;SDS011;5889;51.350;6.708;2022-09-29T11:05:31;9.60;;;5.70;;
11665;SDS011;5889;51.350;6.708;2022-09-29T11:08:00;9.83;;;6.40;;
11665;SDS011;5889;51.350;6.708;2022-09-29T11:10:29;6.03;;;4.40;;
11665;SDS011;5889;51.350;6.708;2022-09-29T11:12:58;8.93;;;5.03;;
11665;SDS011;5889;51.350;6.708;2022-09-29T11:15:46;8.70;;;4.70;;
11665;SDS011;5889;51.350;6.708;2022-09-29T11:18:16;8.37;;;5.00;;
11665;SDS011;5889;51.350;6.708;2022-09-29T11:20:46;6.73;;;4.93;;
11665;SDS011;5889;51.350;6.708;2022-09-29T11:23:22;6.17;;;3.67;;
11665;SDS011;5889;51.350;6.708;2022-09-29T11:28:54;6.97;;;4.30;;
11665;SDS011;5889;51.350;6.708;2022-09-29T11:31:50;8.17;;;4.70;;
11665;SDS011;5889;51.350;6.708;2022-09-29T11:34:33;8.30;;;4.93;;
11665;SDS011;5889;51.350;6.708;2022-09-29T11:37:14;8.90;;;4.50;;
11665;SDS011;5889;51.350;6.708;2022-09-29T11:39:54;6.17;;;3.53;;
11665;SDS011;5889;51.350;6.708;2022-09-29T11:42:33;7.40;;;3.67;;
11665;SDS011;5889;51.350;6.708;2022-09-29T11:45:17;7.27;;;4.23;;
11665;SDS011;5889;51.350;6.708;2022-09-29T11:47:59;8.07;;;3.80;;
11665;SDS011;5889;51.350;6.708;2022-09-29T11:50:46;9.27;;;3.70;;
11665;SDS011;5889;51.350;6.708;2022-09-29T11:53:23;10.60;;;4.23;;
11665;SDS011;5889;51.350;6.708;2022-09-29T11:56:03;9.43;;;4.03;;
11665;SDS011;5889;51.350;6.708;2022-09-29T11:58:45;5.73;;;2.57;;
11665;SDS011;5889;51.350;6.708;2022-09-29T12:01:25;6.50;;;2.63;;
11665;SDS011;5889;51.350;6.708;2022-09-29T12:04:08;3.03;;;1.87;;
11665;SDS011;5889;51.350;6.708;2022-09-29T12:06:48;2.60;;;1.60;;
11665;SDS011;5889;51.350;6.708;2022-09-29T12:09:22;4.80;;;1.90;;
11665;SDS011;5889;51.350;6.708;2022-09-29T12:12:02;3.50;;;1.70;;
11665;SDS011;5889;51.350;6.708;2022-09-29T12:14:49;3.60;;;1.70;;
11665;SDS011;5889;51.350;6.708;2022-09-29T12:17:26;3.57;;;2.20;;
11665;SDS011;5889;51.350;6.708;2022-09-29T12:19:58;3.70;;;2.07;;
11665;SDS011;5889;51.350;6.708;2022-09-29T12:22:28;4.17;;;2.10;;
11665;SDS011;5889;51.350;6.708;2022-09-29T12:24:56;4.40;;;2.47;;
11665;SDS011;5889;51.350;6.708;2022-09-29T12:27:28;5.10;;;2.43;;
11665;SDS011;5889;51.350;6.708;2022-09-29T12:30:01;5.10;;;2.00;;
11665;SDS011;5889;51.350;6.708;2022-09-29T12:32:32;3.93;;;2.20;;
11665;SDS011;5889;51.350;6.708;2022-09-29T12:35:03;4.10;;;2.90;;
11665;SDS011;5889;51.350;6.708;2022-09-29T12:37:38;4.97;;;2.70;;
11665;SDS011;5889;51.350;6.708;2022-09-29T12:40:13;6.40;;;4.03;;
11665;SDS011;5889;51.350;6.708;2022-09-29T12:42:52;8.57;;;3.00;;
11665;SDS011;5889;51.350;6.708;2022-09-29T12:45:27;6.27;;;3.10;;
11665;SDS011;5889;51.350;6.708;2022-09-29T12:48:14;5.10;;;3.10;;
11665;SDS011;5889;51.350;6.708;2022-09-29T12:50:49;5.53;;;2.93;;
11665;SDS011;5889;51.350;6.708;2022-09-29T12:53:24;5.90;;;3.27;;
11665;SDS011;5889;51.350;6.708;2022-09-29T12:55:57;5.13;;;2.60;;
11665;SDS011;5889;51.350;6.708;2022-09-29T12:58:31;8.77;;;3.60;;
11665;SDS011;5889;51.350;6.708;2022-09-29T13:01:11;4.37;;;2.13;;
11665;SDS011;5889;51.350;6.708;2022-09-29T13:07:06;4.70;;;2.40;;
11665;SDS011;5889;51.350;6.708;2022-09-29T13:12:53;8.10;;;3.80;;
11665;SDS011;5889;51.350;6.708;2022-09-29T13:15:54;5.83;;;2.70;;
11665;SDS011;5889;51.350;6.708;2022-09-29T13:21:24;3.57;;;2.70;;
11665;SDS011;5889;51.350;6.708;2022-09-29T13:24:05;4.57;;;3.33;;
11665;SDS011;5889;51.350;6.708;2022-09-29T13:27:03;6.60;;;3.67;;
11665;SDS011;5889;51.350;6.708;2022-09-29T13:29:43;5.83;;;2.97;;
11665;SDS011;5889;51.350;6.708;2022-09-29T13:32:15;6.50;;;2.90;;
11665;SDS011;5889;51.350;6.708;2022-09-29T13:34:45;10.87;;;3.77;;
11665;SDS011;5889;51.350;6.708;2022-09-29T13:37:18;7.00;;;3.13;;
11665;SDS011;5889;51.350;6.708;2022-09-29T13:39:50;5.80;;;3.00;;
11665;SDS011;5889;51.350;6.708;2022-09-29T13:42:27;6.77;;;3.50;;
11665;SDS011;5889;51.350;6.708;2022-09-29T13:54:17;5.03;;;2.60;;
11665;SDS011;5889;51.350;6.708;2022-09-29T13:56:47;10.03;;;3.07;;
11665;SDS011;5889;51.350;6.708;2022-09-29T13:59:17;5.23;;;2.90;;
11665;SDS011;5889;51.350;6.708;2022-09-29T14:01:48;9.43;;;3.13;;
11665;SDS011;5889;51.350;6.708;2022-09-29T14:04:29;3.93;;;2.37;;
11665;SDS011;5889;51.350;6.708;2022-09-29T14:07:11;2.90;;;2.27;;
11665;SDS011;5889;51.350;6.708;2022-09-29T14:10:03;3.67;;;2.43;;
11665;SDS011;5889;51.350;6.708;2022-09-29T14:12:38;7.33;;;2.53;;
11665;SDS011;5889;51.350;6.708;2022-09-29T14:15:07;6.00;;;2.10;;
11665;SDS011;5889;51.350;6.708;2022-09-29T14:17:41;3.77;;;1.97;;
11665;SDS011;5889;51.350;6.708;2022-09-29T14:20:13;4.00;;;1.97;;
11665;SDS011;5889;51.350;6.708;2022-09-29T14:22:54;9.03;;;2.60;;
11665;SDS011;5889;51.350;6.708;2022-09-29T14:25:29;3.77;;;2.20;;
11665;SDS011;5889;51.350;6.708;2022-09-29T14:28:00;6.70;;;2.10;;
11665;SDS011;5889;51.350;6.708;2022-09-29T14:30:39;4.07;;;2.00;;
11665;SDS011;5889;51.350;6.708;2022-09-29T14:33:09;4.27;;;2.00;;
11665;SDS011;5889;51.350;6.708;2022-09-29T14:35:39;6.57;;;1.97;;
11665;SDS011;5889;51.350;6.708;2022-09-29T14:38:08;9.23;;;2.87;;
11665;SDS011;5889;51.350;6.708;2022-09-29T14:40:53;5.93;;;2.13;;
11665;SDS011;5889;51.350;6.708;2022-09-29T14:43:22;1.90;;;1.63;;
11665;SDS011;5889;51.350;6.708;2022-09-29T14:46:14;2.83;;;1.80;;
11665;SDS011;5889;51.350;6.708;2022-09-29T14:49:30;2.67;;;1.67;;
11665;SDS011;5889;51.350;6.708;2022-09-29T14:52:33;3.17;;;1.90;;
11665;SDS011;5889;51.350;6.708;2022-09-29T14:55:10;2.87;;;1.60;;
11665;SDS011;5889;51.350;6.708;2022-09-29T14:57:53;4.53;;;1.80;;
11665;SDS011;5889;51.350;6.708;2022-09-29T15:00:33;2.30;;;1.37;;
11665;SDS011;5889;51.350;6.708;2022-09-29T15:03:14;2.40;;;1.27;;
11665;SDS011;5889;51.350;6.708;2022-09-29T15:05:48;4.27;;;1.57;;
11665;SDS011;5889;51.350;6.708;2022-09-29T15:08:29;3.93;;;1.60;;
11665;SDS011;5889;51.350;6.708;2022-09-29T15:10:58;2.70;;;1.10;;
11665;SDS011;5889;51.350;6.708;2022-09-29T15:13:28;4.63;;;1.50;;
11665;SDS011;5889;51.350;6.708;2022-09-29T15:15:57;1.47;;;1.30;;
11665;SDS011;5889;51.350;6.708;2022-09-29T15:18:42;3.47;;;1.40;;
11665;SDS011;5889;51.350;6.708;2022-09-29T15:21:36;2.43;;;1.20;;
11665;SDS011;5889;51.350;6.708;2022-09-29T15:24:12;5.33;;;1.70;;
11665;SDS011;5889;51.350;6.708;2022-09-29T15:26:51;4.77;;;1.60;;
11665;SDS011;5889;51.350;6.708;2022-09-29T15:29:20;2.60;;;1.40;;
11665;SDS011;5889;51.350;6.708;2022-09-29T15:31:49;1.87;;;1.30;;
11665;SDS011;5889;51.350;6.708;2022-09-29T15:34:17;1.63;;;1.20;;
11665;SDS011;5889;51.350;6.708;2022-09-29T15:36:45;4.57;;;1.20;;
11665;SDS011;5889;51.350;6.708;2022-09-29T15:39:29;2.43;;;1.40;;
11665;SDS011;5889;51.350;6.708;2022-09-29T15:42:11;4.63;;;1.40;;
11665;SDS011;5889;51.350;6.708;2022-09-29T15:44:45;3.27;;;1.70;;